Time;durP1;ratioP1;P1;durP2;ratioP2;P2;SDS_P1;SDS_P2;PMS_P1;PMS_P2;Temp;Humidity;BMP_temperature;BMP_pressure;BME280_temperature;BME280_humidity;BME280_pressure;Samples;Min_cycle;Max_cycle;Signal;HPM_P1;HPM_P2
2023/07/09 00:03:43;;;;;;;3.65;2.10;;;;;;;22.17;35.54;98196.75;10514747;28;20131;-74
2023/07/09 00:09:07;;;;;;;3.90;1.92;;;;;;;22.10;35.72;98198.72;10529855;28;20064;-74
2023/07/09 00:14:28;;;;;;;4.07;2.53;;;;;;;21.98;35.84;98201.16;10516868;28;20047;-73
2023/07/09 00:19:49;;;;;;;4.50;2.63;;;;;;;21.55;36.95;98219.03;10529727;28;20070;-74
2023/07/09 00:25:13;;;;;;;4.43;2.78;;;;;;;21.26;37.28;98215.25;10529397;28;20064;-74
2023/07/09 00:30:34;;;;;;;10.27;3.13;;;;;;;21.13;37.81;98211.28;10529555;28;20116;-74
2023/07/09 00:35:55;;;;;;;5.35;3.30;;;;;;;21.00;38.33;98220.03;10514863;28;20083;-74
2023/07/09 00:41:18;;;;;;;4.82;2.85;;;;;;;20.89;38.66;98212.56;10487154;28;20178;-75
2023/07/09 00:46:48;;;;;;;7.63;2.70;;;;;;;20.82;39.63;98206.66;10514805;28;20120;-73
2023/07/09 00:52:21;;;;;;;3.42;2.30;;;;;;;20.75;39.72;98207.84;10543555;28;20060;-75
2023/07/09 00:57:44;;;;;;;3.58;2.45;;;;;;;20.68;39.78;98202.63;10528352;28;20481;-75
2023/07/09 01:03:05;;;;;;;2.85;2.15;;;;;;;20.56;39.99;98202.91;10514293;28;20454;-75
2023/07/09 01:08:30;;;;;;;4.22;1.95;;;;;;;20.45;40.41;98196.13;10514176;28;20060;-75
2023/07/09 01:13:54;;;;;;;3.97;2.30;;;;;;;20.42;40.92;98205.19;10499789;28;20508;-75
2023/07/09 01:19:16;;;;;;;4.82;2.10;;;;;;;20.39;40.86;98206.53;10527387;28;20476;-74
2023/07/09 01:25:11;;;;;;;4.88;2.20;;;;;;;20.30;41.59;98206.22;10513419;28;20047;-75
2023/07/09 01:30:36;;;;;;;4.20;2.13;;;;;;;20.22;41.65;98205.91;10509676;28;20132;-74
2023/07/09 01:36:00;;;;;;;4.22;1.90;;;;;;;20.13;41.72;98207.00;10527453;28;20074;-74
2023/07/09 01:41:22;;;;;;;3.53;2.10;;;;;;;20.06;42.50;98210.97;10513138;28;20533;-74
2023/07/09 01:46:45;;;;;;;3.80;2.20;;;;;;;20.01;42.57;98207.28;10512465;28;20064;-73
2023/07/09 01:52:08;;;;;;;3.10;2.00;;;;;;;20.00;42.45;98210.75;10499298;28;20162;-74
2023/07/09 01:57:33;;;;;;;4.03;2.47;;;;;;;19.89;42.56;98214.59;10497889;28;20064;-73
2023/07/09 02:02:54;;;;;;;3.55;2.20;;;;;;;19.79;42.84;98205.69;10525274;28;20441;-74
2023/07/09 02:08:15;;;;;;;7.28;2.40;;;;;;;19.68;43.13;98207.38;10525539;28;20143;-74
2023/07/09 02:13:36;;;;;;;5.72;2.55;;;;;;;19.54;43.58;98210.38;10525234;28;20466;-74
2023/07/09 02:18:56;;;;;;;3.47;2.42;;;;;;;19.47;44.11;98216.44;10511267;28;20126;-73
2023/07/09 02:24:17;;;;;;;5.18;2.55;;;;;;;19.43;44.03;98205.69;10510644;28;20516;-73
2023/07/09 02:29:38;;;;;;;3.05;2.33;;;;;;;19.39;44.48;98211.16;10524917;28;20071;-73
2023/07/09 02:34:59;;;;;;;4.75;2.25;;;;;;;19.33;44.54;98220.16;10496738;28;20076;-73
2023/07/09 02:40:19;;;;;;;4.03;3.00;;;;;;;19.24;44.96;98217.66;10524757;28;20074;-73
2023/07/09 02:45:40;;;;;;;4.53;2.60;;;;;;;19.20;45.24;98220.28;10510337;28;20063;-73
2023/07/09 02:51:01;;;;;;;6.82;2.63;;;;;;;19.07;45.47;98219.78;10510321;28;20174;-74
2023/07/09 02:56:21;;;;;;;4.93;2.65;;;;;;;19.07;45.73;98225.44;10524481;28;20392;-74
2023/07/09 03:01:43;;;;;;;6.65;2.78;;;;;;;19.04;45.87;98209.78;10482191;28;20080;-75
2023/07/09 03:07:04;;;;;;;5.07;2.45;;;;;;;19.08;46.07;98226.91;10524495;28;20040;-76
2023/07/09 03:12:25;;;;;;;4.78;2.80;;;;;;;19.08;45.97;98223.34;10496033;28;20115;-74
2023/07/09 03:17:45;;;;;;;5.05;3.10;;;;;;;18.98;46.28;98226.47;10509870;28;20469;-73
2023/07/09 03:23:06;;;;;;;4.30;2.95;;;;;;;18.99;46.54;98236.44;10509404;28;20075;-74
2023/07/09 03:28:26;;;;;;;5.78;3.13;;;;;;;19.05;46.86;98247.28;10509454;28;20173;-74
2023/07/09 03:33:48;;;;;;;5.60;2.80;;;;;;;19.06;46.96;98243.81;10523615;28;20351;-73
2023/07/09 03:39:09;;;;;;;5.20;2.55;;;;;;;19.15;46.96;98244.88;10502768;28;20516;-73
2023/07/09 03:44:29;;;;;;;7.05;3.60;;;;;;;19.27;46.96;98253.13;10517138;28;20040;-74
2023/07/09 03:49:50;;;;;;;7.65;2.97;;;;;;;19.37;46.91;98254.28;10530936;28;20170;-75
2023/07/09 03:55:10;;;;;;;5.95;3.03;;;;;;;19.52;47.30;98240.72;10517059;28;20115;-74
2023/07/09 04:00:31;;;;;;;4.38;2.72;;;;;;;19.74;46.95;98250.13;10516878;28;20122;-74
2023/07/09 04:05:52;;;;;;;4.70;2.67;;;;;;;19.84;47.19;98247.69;10530196;28;20071;-74
2023/07/09 04:11:12;;;;;;;5.55;2.80;;;;;;;20.02;46.81;98251.22;10530033;28;20115;-74
2023/07/09 04:16:33;;;;;;;3.88;2.45;;;;;;;20.19;46.93;98252.56;10516196;28;20072;-73
2023/07/09 04:21:53;;;;;;;4.80;2.88;;;;;;;20.38;46.91;98264.59;10530243;28;20094;-73
2023/07/09 04:27:14;;;;;;;3.97;2.40;;;;;;;20.55;46.88;98264.56;10501852;28;20142;-74
2023/07/09 04:32:36;;;;;;;5.45;2.97;;;;;;;20.73;46.54;98269.44;10487908;28;20063;-73
2023/07/09 04:37:57;;;;;;;7.28;2.95;;;;;;;20.80;46.32;98274.69;10529646;28;20070;-74
2023/07/09 04:43:18;;;;;;;5.28;3.05;;;;;;;20.90;46.45;98270.75;10529259;28;20492;-74
2023/07/09 04:48:39;;;;;;;5.88;2.90;;;;;;;21.14;46.04;98277.28;10515223;28;20470;-74
2023/07/09 04:54:03;;;;;;;6.72;3.72;;;;;;;21.30;45.88;98286.34;10544351;28;20067;-74
2023/07/09 04:59:25;;;;;;;5.70;3.70;;;;;;;21.39;46.32;98285.25;10529522;28;20166;-74
2023/07/09 05:04:45;;;;;;;6.57;4.15;;;;;;;21.66;45.76;98288.97;10528388;28;20082;-74
2023/07/09 05:10:06;;;;;;;10.25;4.35;;;;;;;22.00;45.85;98295.75;10528754;28;20067;-74
2023/07/09 05:15:27;;;;;;;7.65;4.45;;;;;;;22.36;45.20;98301.13;10514228;28;20505;-74
2023/07/09 05:20:48;;;;;;;5.00;3.50;;;;;;;22.60;45.06;98295.44;10514080;28;20047;-74
2023/07/09 05:26:08;;;;;;;7.25;4.03;;;;;;;22.86;44.59;98295.47;10499729;28;20060;-74
2023/07/09 05:31:29;;;;;;;6.00;3.72;;;;;;;23.27;44.61;98299.41;10513695;28;20086;-74
2023/07/09 05:36:50;;;;;;;7.93;3.75;;;;;;;23.82;44.08;98303.66;10513739;28;20064;-74
2023/07/09 05:42:11;;;;;;;10.00;3.90;;;;;;;24.14;42.68;98307.28;10499088;28;20040;-75
2023/07/09 05:47:32;;;;;;;4.82;3.47;;;;;;;24.54;42.18;98301.03;10513127;28;20111;-73
2023/07/09 05:52:54;;;;;;;6.85;4.03;;;;;;;24.92;40.83;98303.25;10512871;28;20079;-74
2023/07/09 05:58:15;;;;;;;5.18;3.53;;;;;;;25.30;40.15;98295.41;10512093;28;20036;-74
2023/07/09 06:03:36;;;;;;;6.25;3.75;;;;;;;25.76;39.35;98303.34;10512169;28;20456;-74
2023/07/09 06:08:57;;;;;;;9.45;3.63;;;;;;;26.35;38.34;98303.53;10526465;28;20040;-74
2023/07/09 06:14:18;;;;;;;4.35;3.13;;;;;;;27.03;37.63;98303.72;10512323;28;20048;-77
2023/07/09 06:19:39;;;;;;;6.03;3.70;;;;;;;27.64;35.88;98307.19;10498145;28;20044;-77
2023/07/09 06:25:00;;;;;;;7.38;3.17;;;;;;;27.90;35.16;98300.25;10511851;28;20047;-77
2023/07/09 06:30:21;;;;;;;4.27;3.10;;;;;;;28.07;34.25;98304.66;10497724;28;20040;-77
2023/07/09 06:35:49;;;;;;;5.55;3.63;;;;;;;28.47;33.52;98314.97;10511434;28;20044;-77
2023/07/09 06:41:10;;;;;;;6.10;3.17;;;;;;;28.67;33.38;98315.09;10511643;28;20112;-77
2023/07/09 06:46:31;;;;;;;6.97;4.17;;;;;;;28.88;32.47;98313.03;10497043;28;20143;-77
2023/07/09 06:51:52;;;;;;;5.68;3.30;;;;;;;29.25;32.15;98316.75;10524880;28;20048;-77
2023/07/09 06:57:13;;;;;;;6.00;3.33;;;;;;;29.61;31.40;98324.03;10539941;28;20044;-77
2023/07/09 07:02:34;;;;;;;6.07;3.13;;;;;;;29.71;30.71;98318.28;10523909;28;20082;-77
2023/07/09 07:07:55;;;;;;;6.23;3.57;;;;;;;30.27;30.43;98316.09;10522897;28;20048;-76
2023/07/09 07:13:16;;;;;;;4.90;3.50;;;;;;;30.84;29.45;98325.31;10513981;28;20130;-77
2023/07/09 07:18:37;;;;;;;8.55;3.40;;;;;;;31.16;28.38;98318.69;10516127;28;20508;-76
2023/07/09 07:23:58;;;;;;;5.20;3.13;;;;;;;31.53;28.17;98319.19;10516229;28;20051;-76
2023/07/09 07:29:20;;;;;;;4.28;3.40;;;;;;;31.78;27.06;98327.72;10544720;28;20048;-76
2023/07/09 07:34:40;;;;;;;4.57;2.88;;;;;;;31.87;26.62;98332.69;10529364;28;20044;-75
2023/07/09 07:40:01;;;;;;;4.43;2.78;;;;;;;32.31;26.26;98325.06;10544684;28;20040;-76
2023/07/09 07:45:23;;;;;;;6.22;3.20;;;;;;;32.53;25.21;98324.13;10501115;28;20040;-76
2023/07/09 07:50:45;;;;;;;5.43;2.95;;;;;;;32.82;25.08;98326.69;10501338;28;20044;-76
2023/07/09 07:56:07;;;;;;;3.95;2.67;;;;;;;32.85;24.28;98325.22;10543781;28;20051;-76
2023/07/09 08:01:28;;;;;;;4.20;2.60;;;;;;;33.20;23.97;98323.34;10502427;28;1163924;-76
2023/07/09 08:06:48;;;;;;;3.60;2.50;;;;;;;33.34;23.12;98313.72;10503262;28;20113;-76
2023/07/09 08:12:11;;;;;;;4.47;2.50;;;;;;;33.59;22.44;98314.09;10516824;28;20051;-76
2023/07/09 08:17:36;;;;;;;4.28;2.25;;;;;;;33.74;22.17;98312.41;10531413;28;20421;-75
2023/07/09 08:22:56;;;;;;;5.13;2.40;;;;;;;34.36;21.61;98312.09;10515993;28;20101;-76
2023/07/09 08:28:17;;;;;;;2.92;2.22;;;;;;;34.33;20.45;98314.28;10502272;28;20044;-75
2023/07/09 08:33:39;;;;;;;4.90;1.92;;;;;;;33.94;19.69;98316.44;10516046;28;20460;-76
2023/07/09 08:39:01;;;;;;;2.58;2.00;;;;;;;34.32;19.69;98318.66;10529578;28;20036;-76
2023/07/09 08:44:41;;;;;;;2.97;2.17;;;;;;;33.93;19.78;98309.94;10529688;28;20032;-76
2023/07/09 08:50:09;;;;;;;7.15;2.20;;;;;;;33.89;19.38;98309.31;10529169;28;20048;-75
2023/07/09 08:55:32;;;;;;;3.55;2.47;;;;;;;34.31;19.66;98308.53;10516142;28;20040;-76
2023/07/09 09:00:55;;;;;;;4.72;2.20;;;;;;;34.14;19.89;98310.31;10529145;28;20070;-75
2023/07/09 09:06:22;;;;;;;5.35;2.67;;;;;;;34.40;20.22;98312.03;10528445;28;20074;-74
2023/07/09 09:11:45;;;;;;;4.22;2.25;;;;;;;34.68;19.93;98304.97;10500902;28;20093;-75
2023/07/09 09:17:14;;;;;;;5.00;2.45;;;;;;;35.10;18.87;98312.06;10500549;28;20048;-75
2023/07/09 09:22:59;;;;;;;4.95;2.13;;;;;;;35.59;18.96;98305.16;10500307;28;20085;-75
2023/07/09 09:28:22;;;;;;;2.63;1.90;;;;;;;35.79;18.28;98318.47;10514691;28;20048;-75
2023/07/09 09:33:44;;;;;;;2.88;1.90;;;;;;;36.01;17.43;98315.06;10526971;28;20064;-75
2023/07/09 09:39:05;;;;;;;6.30;2.90;;;;;;;35.75;16.94;98312.78;10513878;28;20051;-75
2023/07/09 09:44:27;;;;;;;4.57;1.83;;;;;;;36.07;17.30;98305.47;10513060;28;20460;-75
2023/07/09 09:49:48;;;;;;;4.50;1.85;;;;;;;36.68;16.35;98307.47;10513412;28;20036;-76
2023/07/09 09:55:16;;;;;;;;;;;;;;;36.72;15.75;98311.72;10512900;28;20075;-76
2023/07/09 10:00:37;;;;;;;3.30;2.17;;;;;;;36.18;14.97;98308.81;10526341;28;20385;-75
2023/07/09 10:05:59;;;;;;;4.85;2.50;;;;;;;36.32;14.91;98302.63;10540919;28;20048;-75
2023/07/09 10:11:35;;;;;;;3.65;2.50;;;;;;;36.32;15.16;98314.25;10512263;28;20040;-76
2023/07/09 10:17:01;;;;;;;3.90;2.47;;;;;;;35.70;16.10;98302.72;10526048;28;20047;-75
2023/07/09 10:22:40;;;;;;;5.70;2.53;;;;;;;35.58;15.66;98303.03;10512574;28;20051;-76
2023/07/09 10:28:13;;;;;;;4.10;2.10;;;;;;;35.34;16.46;98302.13;10498935;28;20055;-77
2023/07/09 10:33:46;;;;;;;3.47;2.50;;;;;;;36.09;15.71;98293.78;10540591;28;20375;-77
2023/07/09 10:39:12;;;;;;;3.75;2.13;;;;;;;35.93;15.80;98289.13;10511525;28;20043;-76
2023/07/09 10:44:38;;;;;;;3.55;2.28;;;;;;;35.95;15.40;98300.69;10511465;28;20093;-76
2023/07/09 10:49:59;;;;;;;5.03;2.60;;;;;;;36.11;15.94;98291.56;10525033;28;20040;-77
2023/07/09 10:55:28;;;;;;;5.78;2.63;;;;;;;36.58;15.06;98298.31;10524935;28;20058;-76
2023/07/09 11:00:49;;;;;;;3.72;2.58;;;;;;;36.86;15.24;98297.50;10524850;28;20115;-77
2023/07/09 11:06:14;;;;;;;3.88;2.50;;;;;;;37.50;15.03;98288.28;10496270;28;20052;-77
2023/07/09 11:11:39;;;;;;;5.03;2.72;;;;;;;37.85;14.70;98287.19;10510925;28;20478;-77
2023/07/09 11:17:00;;;;;;;2.78;2.03;;;;;;;38.41;14.35;98274.31;10510999;28;20551;-77
2023/07/09 11:22:50;;;;;;;2.92;2.00;;;;;;;38.17;13.92;98275.88;10511333;28;20044;-77
2023/07/09 11:28:11;;;;;;;3.85;2.42;;;;;;;37.42;14.65;98270.38;10497118;28;20121;-77
2023/07/09 11:33:31;;;;;;;3.50;2.33;;;;;;;37.31;14.51;98272.19;10496418;28;20070;-77
2023/07/09 11:38:52;;;;;;;3.90;2.20;;;;;;;37.01;14.92;98268.72;10539045;28;20512;-76
2023/07/09 11:44:20;;;;;;;4.32;2.10;;;;;;;37.20;15.20;98265.94;10496083;28;20040;-77
2023/07/09 11:49:45;;;;;;;3.35;2.40;;;;;;;36.92;15.14;98262.41;10524345;28;20133;-76
2023/07/09 11:55:57;;;;;;;5.50;2.60;;;;;;;36.85;15.03;98254.66;10523609;28;20417;-77
2023/07/09 12:01:23;;;;;;;3.28;2.28;;;;;;;36.78;14.92;98251.19;10498146;28;20486;-76
2023/07/09 12:06:44;;;;;;;3.50;2.28;;;;;;;36.13;15.33;98236.28;10475592;28;20068;-77
2023/07/09 12:12:19;;;;;;;5.32;2.17;;;;;;;35.21;16.02;98240.03;10475317;28;20067;-77
2023/07/09 12:17:41;;;;;;;4.72;2.58;;;;;;;35.11;15.93;98231.56;10475354;28;20053;-77
2023/07/09 12:23:32;;;;;;;2.95;1.83;;;;;;;35.78;15.03;98238.66;10461093;28;20542;-76
2023/07/09 12:28:53;;;;;;;2.95;2.28;;;;;;;36.06;15.12;98223.41;10468304;28;20130;-77
2023/07/09 12:34:17;;;;;;;3.33;2.00;;;;;;;36.18;15.16;98231.06;10474374;28;20075;-77
2023/07/09 12:39:38;;;;;;;3.63;2.30;;;;;;;36.72;15.22;98218.66;10488805;28;20052;-76
2023/07/09 12:44:58;;;;;;;;;;;;;;;36.94;14.48;98209.28;10503120;28;20375;-76
2023/07/09 12:50:27;;;;;;;5.32;2.10;;;;;;;36.08;14.84;98211.00;10487670;28;20011;-77
2023/07/09 12:55:50;;;;;;;3.97;2.47;;;;;;;35.76;15.24;98195.16;10488176;28;20048;-77
2023/07/09 13:01:15;;;;;;;3.67;2.22;;;;;;;36.41;15.54;98196.31;10473833;28;20044;-77
2023/07/09 13:06:36;;;;;;;4.72;2.08;;;;;;;36.26;15.06;98181.44;10473264;28;20045;-77
2023/07/09 13:11:58;;;;;;;3.78;1.98;;;;;;;36.54;14.84;98182.13;10472046;28;20518;-76
2023/07/09 13:17:19;;;;;;;5.25;2.28;;;;;;;36.19;14.74;98176.56;10486828;28;20045;-77
2023/07/09 13:22:39;;;;;;;;;;;;;;;35.94;15.34;98174.38;10486621;28;20396;-77
2023/07/09 13:28:00;;;;;;;3.95;2.15;;;;;;;36.40;15.08;98174.56;10500056;28;20405;-77
2023/07/09 13:33:21;;;;;;;3.05;1.98;;;;;;;36.59;15.11;98172.53;10485889;28;20391;-77
2023/07/09 13:38:42;;;;;;;4.72;2.08;;;;;;;36.75;14.82;98170.59;10471870;28;20044;-77
2023/07/09 13:44:10;;;;;;;2.72;1.90;;;;;;;36.52;14.83;98168.38;10485380;28;20080;-76
2023/07/09 13:49:31;;;;;;;4.75;2.00;;;;;;;36.28;14.32;98171.97;10485956;28;20044;-77
2023/07/09 13:54:52;;;;;;;4.93;2.00;;;;;;;35.65;14.44;98173.69;10484708;28;20105;-76
2023/07/09 14:00:14;;;;;;;6.25;2.13;;;;;;;35.28;14.79;98165.88;10484829;28;20044;-77
2023/07/09 14:05:35;;;;;;;4.53;2.30;;;;;;;34.96;14.56;98152.91;10533272;28;20082;-77
2023/07/09 14:10:56;;;;;;;;;;;;;;;35.02;14.22;98154.91;10526504;28;20040;-76
2023/07/09 14:16:17;;;;;;;5.55;2.85;;;;;;;35.08;14.62;98149.69;10525754;28;19926;-76
2023/07/09 14:21:37;;;;;;;;;;;;;;;34.81;14.49;98143.78;10511866;28;20051;-76
2023/07/09 14:26:59;;;;;;;5.57;3.17;;;;;;;34.76;14.98;98142.47;10525560;28;19920;-76
2023/07/09 14:32:46;;;;;;;5.78;2.58;;;;;;;34.85;15.02;98149.50;10511682;28;20048;-76
2023/07/09 14:38:23;;;;;;;3.60;2.22;;;;;;;34.48;14.93;98143.09;10511083;28;20543;-76
2023/07/09 14:43:44;;;;;;;4.57;2.65;;;;;;;34.24;15.25;98141.41;10511339;28;20051;-75
2023/07/09 14:49:05;;;;;;;;;;;;;;;34.22;15.22;98133.47;10525622;28;20047;-76
2023/07/09 14:54:27;;;;;;;4.80;2.80;;;;;;;34.11;15.56;98135.16;10538893;28;19973;-76
2023/07/09 14:59:51;;;;;;;3.85;2.70;;;;;;;34.12;15.33;98133.69;10496809;28;20039;-76
2023/07/09 15:05:18;;;;;;;3.90;2.33;;;;;;;34.00;15.54;98128.84;10496643;28;20079;-76
2023/07/09 15:10:39;;;;;;;5.63;2.67;;;;;;;33.99;15.81;98120.94;10496600;28;20436;-76
2023/07/09 15:16:00;;;;;;;6.03;2.70;;;;;;;34.01;16.10;98123.78;10510454;28;20445;-76
2023/07/09 15:21:21;;;;;;;;;;;;;;;33.93;15.78;98126.81;10510807;28;20076;-76
2023/07/09 15:26:42;;;;;;;8.25;2.75;;;;;;;33.74;15.59;98120.66;10524180;28;19920;-76
2023/07/09 15:32:04;;;;;;;6.05;2.67;;;;;;;33.48;16.15;98101.59;10511984;28;20040;-75
2023/07/09 15:37:24;;;;;;;;;;;;;;;33.43;16.53;98100.25;10532726;28;20052;-76
2023/07/09 15:42:47;;;;;;;6.13;2.80;;;;;;;33.25;16.36;98093.31;10531875;28;19943;-76
2023/07/09 15:48:29;;;;;;;2.90;2.00;;;;;;;33.22;16.82;98091.22;10504255;28;20043;-76
2023/07/09 15:53:50;;;;;;;4.43;2.10;;;;;;;33.30;16.62;98077.31;10534794;28;20044;-76
2023/07/09 15:59:27;;;;;;;6.30;2.42;;;;;;;33.36;16.75;98075.78;10546440;28;20390;-76
2023/07/09 16:04:48;;;;;;;3.97;2.80;;;;;;;33.18;17.00;98073.91;10504920;28;20048;-76
2023/07/09 16:10:10;;;;;;;4.60;2.67;;;;;;;32.95;16.56;98062.75;10489248;28;20086;-76
2023/07/09 16:15:31;;;;;;;4.57;2.72;;;;;;;32.84;16.82;98060.78;10530994;28;20615;-76
2023/07/09 16:20:51;;;;;;;4.32;2.60;;;;;;;32.78;16.80;98049.28;10530516;28;20044;-76
2023/07/09 16:26:12;;;;;;;5.23;2.67;;;;;;;32.72;17.14;98047.94;10502291;28;20529;-76
2023/07/09 16:31:33;;;;;;;14.17;2.80;;;;;;;32.60;17.52;98045.22;10530326;28;20040;-76
2023/07/09 16:36:54;;;;;;;7.00;2.38;;;;;;;32.52;17.78;98036.66;10515663;28;20068;-76
2023/07/09 16:42:16;;;;;;;3.90;2.28;;;;;;;32.47;17.53;98041.09;10515812;28;20093;-76
2023/07/09 16:47:37;;;;;;;3.27;2.43;;;;;;;32.36;17.74;98031.16;10529796;28;20044;-76
2023/07/09 16:52:57;;;;;;;3.53;2.70;;;;;;;32.31;17.52;98029.78;10544447;28;20315;-76
2023/07/09 16:58:30;;;;;;;4.22;2.53;;;;;;;32.21;17.90;98027.72;10515473;28;20048;-77
2023/07/09 17:03:51;;;;;;;4.38;2.50;;;;;;;31.99;17.96;98025.88;10528906;28;20056;-76
2023/07/09 17:09:12;;;;;;;3.47;2.42;;;;;;;31.89;18.39;98018.06;10500811;28;20047;-76
2023/07/09 17:14:33;;;;;;;3.83;2.60;;;;;;;31.79;18.27;98021.06;10514338;28;20040;-77
2023/07/09 17:19:54;;;;;;;4.97;2.70;;;;;;;31.66;18.44;98019.06;10514296;28;20047;-76
2023/07/09 17:25:21;;;;;;;5.18;3.00;;;;;;;31.55;18.95;98032.88;10528111;28;20063;-76
2023/07/09 17:30:43;;;;;;;4.40;2.72;;;;;;;31.34;19.14;98023.75;10542774;28;20098;-76
2023/07/09 17:36:04;;;;;;;3.28;2.22;;;;;;;31.23;19.98;98022.41;10513758;28;20048;-76
2023/07/09 17:41:26;;;;;;;4.95;2.70;;;;;;;31.11;20.05;98022.53;10513428;28;20040;-76
2023/07/09 17:46:48;;;;;;;4.57;2.90;;;;;;;30.98;19.79;98031.28;10542276;28;20393;-76
2023/07/09 17:52:15;;;;;;;;;;;;;;;30.90;19.86;98034.25;10513556;28;20040;-76
2023/07/09 17:57:36;;;;;;;5.30;2.85;;;;;;;30.73;19.94;98036.53;10540053;28;19920;-77
2023/07/09 18:03:04;;;;;;;3.90;2.53;;;;;;;30.59;20.41;98035.91;10498647;28;20052;-76
2023/07/09 18:08:26;;;;;;;6.07;2.78;;;;;;;30.42;20.61;98036.03;10526215;28;20040;-76
2023/07/09 18:13:47;;;;;;;7.22;3.00;;;;;;;30.26;20.71;98044.75;10512105;28;20134;-76
2023/07/09 18:19:35;;;;;;;4.30;2.40;;;;;;;30.05;20.88;98044.16;10540937;28;20055;-76
2023/07/09 18:24:57;;;;;;;5.45;2.72;;;;;;;29.87;21.38;98047.09;10529373;28;20051;-76
2023/07/09 18:30:23;;;;;;;5.43;2.55;;;;;;;29.66;21.70;98045.75;10512119;28;20036;-76
2023/07/09 18:35:44;;;;;;;5.68;2.53;;;;;;;29.43;22.14;98047.94;10525062;28;20047;-76
2023/07/09 18:41:15;;;;;;;5.97;2.80;;;;;;;29.20;22.97;98053.03;10525325;28;20527;-76
2023/07/09 18:46:37;;;;;;;6.13;2.70;;;;;;;28.99;23.24;98052.34;10497806;28;20048;-76
2023/07/09 18:51:58;;;;;;;4.88;2.70;;;;;;;28.79;23.76;98061.66;10497043;28;20394;-76
2023/07/09 18:57:19;;;;;;;6.13;2.75;;;;;;;28.61;24.06;98056.63;10525017;28;20398;-76
2023/07/09 19:02:41;;;;;;;3.75;2.50;;;;;;;28.44;24.26;98060.91;10510494;28;20048;-76
2023/07/09 19:08:14;;;;;;;7.25;3.28;;;;;;;28.32;24.52;98064.47;10516136;28;20127;-76
2023/07/09 19:13:35;;;;;;;5.20;2.92;;;;;;;28.10;24.95;98065.13;10520966;28;20036;-76
2023/07/09 19:19:00;;;;;;;4.65;2.88;;;;;;;27.75;25.82;98066.41;10548349;28;20496;-76
2023/07/09 19:24:25;;;;;;;4.20;2.90;;;;;;;27.52;26.15;98065.56;10505527;28;20040;-75
2023/07/09 19:29:49;;;;;;;9.25;3.00;;;;;;;27.29;26.66;98064.69;10532648;28;20098;-76
2023/07/09 19:35:16;;;;;;;5.20;2.83;;;;;;;27.12;26.85;98069.63;10504897;28;20512;-76
2023/07/09 19:40:39;;;;;;;5.18;2.80;;;;;;;26.99;27.12;98074.50;10519047;28;20040;-75
2023/07/09 19:46:02;;;;;;;3.78;2.83;;;;;;;26.88;27.40;98070.13;10518294;28;20050;-76
2023/07/09 19:51:23;;;;;;;5.70;3.20;;;;;;;26.73;27.59;98072.16;10546959;28;20040;-77
2023/07/09 19:56:45;;;;;;;9.25;3.30;;;;;;;26.66;27.61;98075.66;10531381;28;20435;-76
2023/07/09 20:02:20;;;;;;;9.10;3.13;;;;;;;26.58;28.51;98072.72;10503568;28;20059;-77
2023/07/09 20:07:41;;;;;;;6.03;3.50;;;;;;;26.36;28.64;98070.34;10517724;28;20482;-76
2023/07/09 20:13:02;;;;;;;5.07;3.38;;;;;;;26.25;29.38;98075.94;10502946;28;20067;-76
2023/07/09 20:18:24;;;;;;;5.97;3.10;;;;;;;26.20;28.88;98073.75;10516241;28;20070;-76
2023/07/09 20:23:45;;;;;;;6.37;3.43;;;;;;;26.17;29.20;98072.28;10516834;28;20040;-77
2023/07/09 20:29:13;;;;;;;7.82;3.13;;;;;;;26.00;29.36;98070.66;10530411;28;20097;-77
2023/07/09 20:34:34;;;;;;;5.05;3.00;;;;;;;25.92;29.32;98072.00;10529953;28;20044;-76
2023/07/09 20:39:55;;;;;;;4.43;2.88;;;;;;;25.83;29.47;98079.03;10516223;28;20040;-76
2023/07/09 20:45:23;;;;;;;7.57;3.53;;;;;;;25.76;29.98;98080.34;10515849;28;20070;-77
2023/07/09 20:50:44;;;;;;;6.63;3.03;;;;;;;25.66;29.87;98074.47;10501658;28;20044;-77
2023/07/09 20:56:10;;;;;;;6.72;2.75;;;;;;;25.57;30.12;98081.50;10515574;28;20040;-77
2023/07/09 21:01:31;;;;;;;5.75;3.25;;;;;;;25.55;30.79;98078.63;10501620;28;20116;-76
2023/07/09 21:06:52;;;;;;;5.05;3.10;;;;;;;25.52;30.53;98082.88;10529049;28;20060;-77
2023/07/09 21:12:14;;;;;;;4.82;3.33;;;;;;;25.54;30.65;98086.47;10500866;28;20036;-76
2023/07/09 21:17:35;;;;;;;8.00;3.80;;;;;;;25.54;30.53;98088.63;10514506;28;20051;-77
2023/07/09 21:22:57;;;;;;;4.90;3.05;;;;;;;25.53;30.74;98082.19;10543449;28;20051;-77
2023/07/09 21:28:17;;;;;;;5.90;3.13;;;;;;;25.51;31.22;98090.72;10499654;28;20101;-76
2023/07/09 21:33:38;;;;;;;10.27;3.15;;;;;;;25.40;31.30;98098.44;10527500;28;20059;-76
2023/07/09 21:38:59;;;;;;;5.80;3.65;;;;;;;25.33;31.03;98101.91;10527533;28;20048;-76
2023/07/09 21:44:23;;;;;;;6.55;3.58;;;;;;;25.23;31.86;98105.31;10527318;28;20090;-77
2023/07/09 21:49:44;;;;;;;5.00;3.10;;;;;;;25.18;31.73;98103.81;10542405;28;20040;-77
2023/07/09 21:55:12;;;;;;;5.65;2.78;;;;;;;25.17;31.73;98107.34;10513116;28;20505;-77
2023/07/09 22:00:33;;;;;;;4.13;3.13;;;;;;;25.13;32.15;98108.03;10499756;28;20051;-76
2023/07/09 22:06:10;;;;;;;5.35;3.30;;;;;;;25.04;31.99;98107.16;10526114;28;20052;-77
2023/07/09 22:11:31;;;;;;;5.63;3.22;;;;;;;24.97;32.56;98114.16;10526378;28;20044;-77
2023/07/09 22:16:52;;;;;;;5.65;3.80;;;;;;;24.87;32.53;98104.72;10512378;28;20063;-77
2023/07/09 22:22:19;;;;;;;5.55;3.45;;;;;;;24.74;33.08;98109.50;10511823;28;20086;-77
2023/07/09 22:27:39;;;;;;;5.20;3.65;;;;;;;24.56;33.40;98101.34;10497863;28;20486;-77
2023/07/09 22:33:00;;;;;;;6.15;3.33;;;;;;;24.47;33.69;98116.84;10525516;28;20036;-77
2023/07/09 22:38:22;;;;;;;5.88;3.40;;;;;;;24.41;33.73;98111.03;10525755;28;20044;-74
2023/07/09 22:43:43;;;;;;;5.53;3.58;;;;;;;24.27;34.78;98105.75;10511096;28;20073;-77
2023/07/09 22:49:03;;;;;;;10.90;3.67;;;;;;;24.20;34.61;98107.75;10511270;28;20068;-75
2023/07/09 22:54:24;;;;;;;7.63;3.22;;;;;;;24.18;34.85;98104.88;10511284;28;20036;-77
2023/07/09 22:59:45;;;;;;;4.93;3.38;;;;;;;23.97;35.15;98111.59;10510914;28;20048;-77
2023/07/09 23:05:10;;;;;;;9.32;3.28;;;;;;;23.87;35.75;98114.22;10524774;28;20452;-74
2023/07/09 23:10:31;;;;;;;6.38;3.50;;;;;;;23.79;35.77;98106.22;10524738;28;20044;-74
2023/07/09 23:15:52;;;;;;;5.05;3.35;;;;;;;23.80;35.86;98104.09;10510605;28;20076;-74
2023/07/09 23:21:13;;;;;;;5.40;3.60;;;;;;;23.69;36.27;98094.63;10510410;28;20139;-75
2023/07/09 23:26:34;;;;;;;6.28;3.70;;;;;;;23.60;36.43;98102.25;10496620;28;20068;-74
2023/07/09 23:31:55;;;;;;;5.47;3.63;;;;;;;23.56;36.64;98102.16;10524602;28;20040;-74
2023/07/09 23:37:16;;;;;;;8.23;3.47;;;;;;;23.51;37.01;98100.59;10539350;28;20131;-75
2023/07/09 23:42:37;;;;;;;4.72;3.42;;;;;;;23.35;37.31;98089.56;10482494;28;20491;-74
2023/07/09 23:47:57;;;;;;;6.85;3.70;;;;;;;23.26;37.56;98087.22;10509908;28;20067;-74
2023/07/09 23:53:29;;;;;;;6.35;4.00;;;;;;;23.22;37.81;98090.69;10512287;28;20059;-75
2023/07/09 23:58:49;;;;;;;6.65;3.78;;;;;;;23.30;37.78;98093.00;10504323;28;20102;-74
